Rice River, Minnesota
Current Conditions -  °F | °C
As of 3:27 PM on Friday 28 Nov 2014 (Local Time) from KHZX Reporting Station
Overcast Overcast  
Wind Chill:   Ceiling: 5000
Heat Index: 18°   Visibility: 10mi
Dew Point: 12°   Wind: 6mph
Humidity: 79%   Direction: 100°E
Pressure: 29.84"   Gusts: NA
Location:  46.7232°N, 93.3159°W
Report Text: KHZX 282127Z AUTO 10005KT 10SM SCT017 BKN050 OVC095 M08/M11 A2984 RMK AO2
Loading
Personal Weather Stations






























Interactive Weather Map New forecast layout! Learn more

10-Day Weather Forecast

Advertisements
Track Severe Weather on mobile